Lady Lay — HBY4243 — position and weather

sailwx.info

Track history (hours):
 
Tides and Currents Weather Stations Pressure Air Temp Water Temp Dewpoint Dewpoint Depression Visibility Wind Speed Wind Dir Waves Ship Positions

Lady Lay

Last reported at 2016-Dec-14 09:32 UTC. Time now 2017-Feb-19 18:52 UTC.
Position S 29°52' E 031°01'.
Warning: this ship's position is months out of date.

Length 13 m.

MMSI: 269850000.

Date/timePositionNaut miles runAvg speedWind from/ knotsBaromVisibWave heightAir tempDewpointWater temp
2016-Dec-14 09:32S 29°52' E 031°01'0 0.0
2016-Dec-14 08:26S 29°52' E 031°01'0 0.1
2016-Dec-14 07:33S 29°52' E 031°02'0 0.2
2016-Dec-14 06:33S 29°52' E 031°02'0 0.0
2016-Dec-14 05:33S 29°52' E 031°02'0 0.0
2016-Dec-14 04:33S 29°52' E 031°02'0 0.0
2016-Dec-14 03:30S 29°52' E 031°02'0 0.0
2016-Dec-14 02:33S 29°52' E 031°02'0 0.0
2016-Dec-14 01:33S 29°52' E 031°02'0 0.0
2016-Dec-14 00:33S 29°52' E 031°02'0 0.0
2016-Dec-13 23:33S 29°52' E 031°02'0 0.0
2016-Dec-13 22:33S 29°52' E 031°02'0 0.0
2016-Dec-13 21:33S 29°52' E 031°02'0 0.0
2016-Dec-13 20:33S 29°52' E 031°02'0 0.0
2016-Dec-13 19:27S 29°52' E 031°02'0 0.0
2016-Dec-13 18:28S 29°52' E 031°02'0 0.0
2016-Dec-13 17:22S 29°52' E 031°02'0 0.0
2016-Dec-13 16:31S 29°52' E 031°02'0 0.0
2016-Dec-13 15:31S 29°52' E 031°02'0 0.0
2016-Dec-13 14:22S 29°52' E 031°02'0 0.0
2016-Dec-13 13:31S 29°52' E 031°02'0 0.0
2016-Dec-13 12:28S 29°52' E 031°02'0 0.0
2016-Dec-13 11:28S 29°52' E 031°02'0 0.0
2016-Dec-13 10:31S 29°52' E 031°02'0 0.0
2016-Dec-13 09:31S 29°52' E 031°02'0 0.0
2016-Dec-13 08:31S 29°52' E 031°02'0 0.0
2016-Dec-13 07:31S 29°52' E 031°02'0 0.0
2016-Dec-13 06:33S 29°52' E 031°02'0 0.0
2016-Dec-13 05:33S 29°52' E 031°02'0 0.0
2016-Dec-13 04:33S 29°52' E 031°02'0 0.0
2016-Dec-13 03:33S 29°52' E 031°02'0 0.0
2016-Dec-13 02:33S 29°52' E 031°02'0 0.0
2016-Dec-13 01:21S 29°52' E 031°02'0 0.0
2016-Dec-13 00:21S 29°52' E 031°02'0 0.0
2016-Dec-12 23:27S 29°52' E 031°02'0 0.0
2016-Dec-12 22:30S 29°52' E 031°02'0 0.0
2016-Dec-12 21:33S 29°52' E 031°02'0 0.0
2016-Dec-12 20:27S 29°52' E 031°02'0 0.0
2016-Dec-12 19:33S 29°52' E 031°02'0 0.0
2016-Dec-12 18:33S 29°52' E 031°02'0 0.0
2016-Dec-12 17:27S 29°52' E 031°02'0 0.0
2016-Dec-12 16:27S 29°52' E 031°02'0 0.0
2016-Dec-12 15:33S 29°52' E 031°02'0 0.0
2016-Dec-12 14:33S 29°52' E 031°02'0 0.0
2016-Dec-12 13:33S 29°52' E 031°02'0 0.0
2016-Dec-12 12:30S 29°52' E 031°02'0 0.0
2016-Dec-12 11:33S 29°52' E 031°02'0 0.0
2016-Dec-12 10:27S 29°52' E 031°02'0 0.0
2016-Dec-12 09:33S 29°52' E 031°02'0 0.0
2016-Dec-12 08:19S 29°52' E 031°02'0 0.2
2016-Dec-12 07:31S 29°52' E 031°02'2 1.9
2016-Dec-12 06:33S 29°52' E 031°04'1 1.3
2016-Dec-12 05:33S 29°51' E 031°05'5 4.5
2016-Dec-12 04:33S 29°50' E 031°10'5 5.2
2016-Dec-12 03:34S 29°50' E 031°16'5 5.2
2016-Dec-12 02:34S 29°50' E 031°22'6 5.8
2016-Dec-12 01:34S 29°51' E 031°28'7 6.8
2016-Dec-12 00:34S 29°51' E 031°36'  
Track history (hours):
 
Tides and Currents Weather Stations Pressure Air Temp Water Temp Dewpoint Dewpoint Depression Visibility Wind Speed Wind Dir Waves Ship Positions

Lady Lay

Last reported at 2016-Dec-14 09:32 UTC. Time now 2017-Feb-19 18:52 UTC.
Position S 29°52' E 031°01'.
Warning: this ship's position is months out of date.

Length 13 m.

MMSI: 269850000.

Date/timePositionNaut miles runAvg speedWind from/ knotsBaromVisibWave heightAir tempDewpointWater temp
2016-Dec-14 09:32S 29°52' E 031°01'0 0.0
2016-Dec-14 08:26S 29°52' E 031°01'0 0.1
2016-Dec-14 07:33S 29°52' E 031°02'0 0.2
2016-Dec-14 06:33S 29°52' E 031°02'0 0.0
2016-Dec-14 05:33S 29°52' E 031°02'0 0.0
2016-Dec-14 04:33S 29°52' E 031°02'0 0.0
2016-Dec-14 03:30S 29°52' E 031°02'0 0.0
2016-Dec-14 02:33S 29°52' E 031°02'0 0.0
2016-Dec-14 01:33S 29°52' E 031°02'0 0.0
2016-Dec-14 00:33S 29°52' E 031°02'0 0.0
2016-Dec-13 23:33S 29°52' E 031°02'0 0.0
2016-Dec-13 22:33S 29°52' E 031°02'0 0.0
2016-Dec-13 21:33S 29°52' E 031°02'0 0.0
2016-Dec-13 20:33S 29°52' E 031°02'0 0.0
2016-Dec-13 19:27S 29°52' E 031°02'0 0.0
2016-Dec-13 18:28S 29°52' E 031°02'0 0.0
2016-Dec-13 17:22S 29°52' E 031°02'0 0.0
2016-Dec-13 16:31S 29°52' E 031°02'0 0.0
2016-Dec-13 15:31S 29°52' E 031°02'0 0.0
2016-Dec-13 14:22S 29°52' E 031°02'0 0.0
2016-Dec-13 13:31S 29°52' E 031°02'0 0.0
2016-Dec-13 12:28S 29°52' E 031°02'0 0.0
2016-Dec-13 11:28S 29°52' E 031°02'0 0.0
2016-Dec-13 10:31S 29°52' E 031°02'0 0.0
2016-Dec-13 09:31S 29°52' E 031°02'0 0.0
2016-Dec-13 08:31S 29°52' E 031°02'0 0.0
2016-Dec-13 07:31S 29°52' E 031°02'0 0.0
2016-Dec-13 06:33S 29°52' E 031°02'0 0.0
2016-Dec-13 05:33S 29°52' E 031°02'0 0.0
2016-Dec-13 04:33S 29°52' E 031°02'0 0.0
2016-Dec-13 03:33S 29°52' E 031°02'0 0.0
2016-Dec-13 02:33S 29°52' E 031°02'0 0.0
2016-Dec-13 01:21S 29°52' E 031°02'0 0.0
2016-Dec-13 00:21S 29°52' E 031°02'0 0.0
2016-Dec-12 23:27S 29°52' E 031°02'0 0.0
2016-Dec-12 22:30S 29°52' E 031°02'0 0.0
2016-Dec-12 21:33S 29°52' E 031°02'0 0.0
2016-Dec-12 20:27S 29°52' E 031°02'0 0.0
2016-Dec-12 19:33S 29°52' E 031°02'0 0.0
2016-Dec-12 18:33S 29°52' E 031°02'0 0.0
2016-Dec-12 17:27S 29°52' E 031°02'0 0.0
2016-Dec-12 16:27S 29°52' E 031°02'0 0.0
2016-Dec-12 15:33S 29°52' E 031°02'0 0.0
2016-Dec-12 14:33S 29°52' E 031°02'0 0.0
2016-Dec-12 13:33S 29°52' E 031°02'0 0.0
2016-Dec-12 12:30S 29°52' E 031°02'0 0.0
2016-Dec-12 11:33S 29°52' E 031°02'0 0.0
2016-Dec-12 10:27S 29°52' E 031°02'0 0.0
2016-Dec-12 09:33S 29°52' E 031°02'0 0.0
2016-Dec-12 08:19S 29°52' E 031°02'0 0.2
2016-Dec-12 07:31S 29°52' E 031°02'2 1.9
2016-Dec-12 06:33S 29°52' E 031°04'1 1.3
2016-Dec-12 05:33S 29°51' E 031°05'5 4.5
2016-Dec-12 04:33S 29°50' E 031°10'5 5.2
2016-Dec-12 03:34S 29°50' E 031°16'5 5.2
2016-Dec-12 02:34S 29°50' E 031°22'6 5.8
2016-Dec-12 01:34S 29°51' E 031°28'7 6.8
2016-Dec-12 00:34S 29°51' E 031°36'  

Dump ship's entire track history